NEVŞEHİR ÇAT BALON UÇUŞ SAHASI

  • SEKTÖREL METEOROLOJİK DEĞERLENDİRME

  • ÇAT UÇULMAZ

Meteorolojik şartların belirlenen saat aralığında uçuş için uygun olmadığı değerlendirilmiştir.

  • GÜNCELLEME TARİHİ ve SAATİ :

  • 19.10.2021 - 03:13

  • GEÇERLİ TARİH ve SAATLER :

  • 19.10.2021 - 03:20 - 15:00

Bu bölümde yer alan bildirim meteorolojik veriler doğrultusunda ilgili gün ve zaman aralığında planlanan uçuşlara dair bağlayıcı niteliktedir. Kırmızı ve Sarı bayrak durumlarında kalkış uygunluğu verilmeyecektir. Yeşil bayrak durumunda nihai uçma kararı pilot ve işletme sorumluluğundadır
Kırmızı ve/veya sarı bayrağın ilan edildiği durumlarda yalnızca öğretmen pilot ile beraber yapılacak eğitim uçuşları (çift kumanda) için SHGM yetkilileri ile irtibata geçilerek eğitim uçuşları gerçekleştirilebilecektir.

METAR

LTAZ 190520Z 04003KT 350V080 9999 SCT040 08/05 Q1023 RMK RWY29 VRB02KT

TAF

TAF LTAZ 182240Z 1900/1924 VRB02KT 9999 SCT035 BKN090 PROB40 TEMPO 1903/1906 3000 BR SCT010 BKN025 TEMPO 1910/1914 36012KT BKN030 BKN080

METAR - TAF bilgileri Aviation Weather Center'dan alınmaktadır.

AIRGRAM

Airgram Meteoroloji Genel Müdürlüğü'nden alınmaktadır.

Meteorolojik veriler sitede bilgilendirme amacıyla yer almaktadır.